HST,Max TemperatureF,Mean TemperatureF,Min TemperatureF,Max Dew PointF,MeanDew PointF,Min DewpointF,Max Humidity, Mean Humidity, Min Humidity, Max Sea Level PressureIn, Mean Sea Level PressureIn, Min Sea Level PressureIn, Max VisibilityMiles, Mean VisibilityMiles, Min VisibilityMiles, Max Wind SpeedMPH, Mean Wind SpeedMPH, Max Gust SpeedMPH,PrecipitationIn, CloudCover, Events, WindDirDegrees
2013-5-1,80,75,70,71,69,67,97,86,74,30.10,30.05,30.01,10,10,10,12,7,17,0.00,4,,65
2013-5-2,80,77,73,71,69,68,87,81,74,30.11,30.07,30.04,10,10,10,15,11,18,0.00,3,,87
2013-5-3,79,74,69,70,67,62,97,82,67,30.09,30.04,29.99,10,10,10,12,6,15,0.00,5,,253
2013-5-4,81,75,68,72,68,64,90,76,62,30.01,29.96,29.91,10,10,10,14,7,17,0.00,6,Rain,235
2013-5-5,78,74,70,72,68,63,100,91,82,29.96,29.91,29.88,10,9,4,17,7,21,0.04,6,Rain,354
2013-5-6,78,72,65,63,61,59,87,71,54,29.99,29.94,29.90,10,10,10,24,11,28,0.00,3,,358
2013-5-7,79,71,63,63,61,59,87,72,56,30.02,29.97,29.94,10,10,10,21,8,24,0.00,4,,336
2013-5-8,79,71,63,67,64,59,87,74,60,30.04,29.99,29.95,10,10,10,9,7,16,0.00,4,,307
2013-5-9,80,73,66,68,65,62,87,75,62,30.11,30.04,29.99,10,10,10,17,8,20,0.00,4,Rain,354
2013-5-10,79,73,67,67,65,62,87,77,67,30.17,30.10,30.05,10,10,10,21,11,24,0.00,6,,350
2013-5-11,79,73,66,66,63,60,81,72,62,30.16,30.13,30.08,10,10,10,22,13,25,T,4,,17
2013-5-12,79,74,69,68,65,61,84,73,62,30.17,30.12,30.07,10,10,9,21,16,24,0.03,8,Rain,45
2013-5-13,79,75,71,72,70,67,93,81,69,30.12,30.09,30.04,10,8,2,23,18,28,0.05,8,Rain,71
2013-5-14,82,78,74,72,70,68,87,78,69,30.17,30.11,30.06,10,10,10,20,15,23,0.00,6,,63
2013-5-15,82,77,72,71,69,67,87,78,69,30.19,30.14,30.11,10,10,7,20,14,24,0.06,4,Rain,53
2013-5-16,82,78,74,70,67,67,84,71,58,30.16,30.12,30.09,10,10,10,21,15,23,0.00,3,,64
2013-5-17,82,78,74,68,66,64,79,69,58,30.12,30.08,30.04,10,10,10,17,14,30,T,4,Rain,61
2013-5-18,82,76,69,69,67,64,90,76,62,30.09,30.04,29.99,10,10,10,15,9,24,T,3,Rain,14
2013-5-19,78,72,66,68,65,59,97,86,74,30.04,30.00,29.96,10,8,2,17,8,21,0.15,6,Rain,349
2013-5-20,78,69,60,66,62,56,90,77,64,30.01,29.97,29.93,10,9,2,18,8,23,0.03,5,Rain,305
2013-5-21,81,73,65,66,64,61,87,73,58,30.02,29.98,29.94,10,10,10,13,7,22,0.00,5,,263
2013-5-22,83,75,66,68,65,62,93,78,62,30.07,30.01,29.96,10,10,10,15,8,20,0.00,2,,303
2013-5-23,83,77,70,72,69,65,90,80,69,30.10,30.05,30.00,10,10,9,12,7,17,0.00,4,,22
2013-5-24,84,78,71,72,69,66,90,76,62,30.11,30.08,30.06,10,10,9,17,10,22,T,5,Rain,43
2013-5-25,82,78,74,71,69,66,84,75,65,30.13,30.08,30.05,10,10,10,20,13,23,T,4,,59
2013-5-26,83,79,74,69,67,65,82,70,58,30.14,30.10,30.06,10,10,10,20,16,24,T,3,,61
2013-5-27,83,79,74,70,67,65,79,69,58,30.14,30.10,30.08,10,10,10,20,15,26,0.00,4,,64
2013-5-28,83,79,74,70,69,66,84,73,62,30.12,30.09,30.06,10,10,10,17,11,22,T,3,,82
2013-5-29,86,80,74,72,69,64,93,76,59,30.10,30.07,30.04,10,10,10,14,10,21,0.01,5,Rain,80
2013-5-30,84,77,69,72,69,63,90,78,65,30.06,30.02,29.98,10,10,10,14,9,17,T,5,Rain,41
2013-5-31,83,79,74,73,71,69,87,78,69,30.08,30.02,29.98,10,10,6,17,12,26,0.01,6,Rain,73